sensor_id;sensor_type;location;lat;lon;timestamp;pressure;altitude;pressure_sealevel;temperature;humidity
82619;BME280;72286;12.108;-68.842;2023-08-17T02:09:54;101144.56;;;23.42;29.76
82619;BME280;72286;12.108;-68.842;2023-08-17T02:15:46;101151.36;;;24.78;74.15
82619;BME280;72286;12.108;-68.842;2023-08-17T02:18:21;101154.30;;;26.07;80.31
82619;BME280;72286;12.108;-68.842;2023-08-17T02:20:56;101151.52;;;26.72;79.51
82619;BME280;72286;12.108;-68.842;2023-08-17T02:23:31;101154.30;;;27.13;77.19
82619;BME280;72286;12.108;-68.842;2023-08-17T02:29:41;101157.16;;;27.66;74.23
82619;BME280;72286;12.108;-68.842;2023-08-17T02:32:17;101157.14;;;27.80;72.95
82619;BME280;72286;12.108;-68.842;2023-08-17T02:34:50;101157.45;;;27.90;73.96
82619;BME280;72286;12.108;-68.842;2023-08-17T02:37:25;101165.10;;;27.97;73.83
82619;BME280;72286;12.108;-68.842;2023-08-17T02:39:58;101167.71;;;28.02;73.91
82619;BME280;72286;12.108;-68.842;2023-08-17T02:46:11;101165.20;;;28.14;73.08
82619;BME280;72286;12.108;-68.842;2023-08-17T02:48:41;101166.59;;;28.18;72.50
82619;BME280;72286;12.108;-68.842;2023-08-17T02:51:12;101168.55;;;28.21;72.38
82619;BME280;72286;12.108;-68.842;2023-08-17T02:54:01;101173.95;;;28.18;73.12
82619;BME280;72286;12.108;-68.842;2023-08-17T02:59:54;101171.52;;;28.24;73.23
82619;BME280;72286;12.108;-68.842;2023-08-17T03:06:06;101169.73;;;28.23;73.93
82619;BME280;72286;12.108;-68.842;2023-08-17T03:08:37;101169.38;;;28.27;73.44
82619;BME280;72286;12.108;-68.842;2023-08-17T03:14:36;101161.86;;;28.39;72.34
82619;BME280;72286;12.108;-68.842;2023-08-17T03:17:06;101158.06;;;28.33;72.90
82619;BME280;72286;12.108;-68.842;2023-08-17T03:19:38;101162.04;;;28.31;73.13
82619;BME280;72286;12.108;-68.842;2023-08-17T03:22:11;101160.38;;;28.24;73.96
82619;BME280;72286;12.108;-68.842;2023-08-17T03:24:46;101158.29;;;28.25;74.13
82619;BME280;72286;12.108;-68.842;2023-08-17T03:27:17;101155.25;;;28.25;73.94
82619;BME280;72286;12.108;-68.842;2023-08-17T03:29:48;101157.02;;;28.18;74.35
82619;BME280;72286;12.108;-68.842;2023-08-17T03:32:20;101148.10;;;28.28;73.47
82619;BME280;72286;12.108;-68.842;2023-08-17T03:34:53;101147.51;;;28.29;73.43
82619;BME280;72286;12.108;-68.842;2023-08-17T03:37:25;101150.70;;;28.33;72.94
82619;BME280;72286;12.108;-68.842;2023-08-17T03:39:59;101152.60;;;28.32;73.62
82619;BME280;72286;12.108;-68.842;2023-08-17T03:42:32;101145.52;;;28.23;74.37
82619;BME280;72286;12.108;-68.842;2023-08-17T03:45:04;101140.53;;;28.25;74.03
82619;BME280;72286;12.108;-68.842;2023-08-17T03:47:39;101137.16;;;28.26;74.08
82619;BME280;72286;12.108;-68.842;2023-08-17T03:50:12;101139.48;;;28.14;74.87
82619;BME280;72286;12.108;-68.842;2023-08-17T03:52:43;101136.77;;;28.12;74.74
82619;BME280;72286;12.108;-68.842;2023-08-17T03:55:14;101131.59;;;28.14;75.01
82619;BME280;72286;12.108;-68.842;2023-08-17T03:57:46;101127.34;;;28.13;74.90
82619;BME280;72286;12.108;-68.842;2023-08-17T04:00:17;101129.61;;;28.16;74.52
82619;BME280;72286;12.108;-68.842;2023-08-17T04:02:49;101129.22;;;28.16;74.33
82619;BME280;72286;12.108;-68.842;2023-08-17T04:05:27;101134.38;;;28.19;73.66
82619;BME280;72286;12.108;-68.842;2023-08-17T04:07:59;101136.27;;;28.18;73.81
82619;BME280;72286;12.108;-68.842;2023-08-17T04:10:34;101135.34;;;28.10;74.24
82619;BME280;72286;12.108;-68.842;2023-08-17T04:13:21;101136.52;;;28.13;73.81
82619;BME280;72286;12.108;-68.842;2023-08-17T04:15:54;101141.29;;;28.08;74.37
82619;BME280;72286;12.108;-68.842;2023-08-17T04:18:26;101132.85;;;27.98;74.28
82619;BME280;72286;12.108;-68.842;2023-08-17T04:20:58;101132.09;;;27.99;74.14
82619;BME280;72286;12.108;-68.842;2023-08-17T04:23:31;101134.56;;;28.07;73.44
82619;BME280;72286;12.108;-68.842;2023-08-17T04:26:03;101136.83;;;27.98;74.24
82619;BME280;72286;12.108;-68.842;2023-08-17T04:28:37;101138.58;;;27.97;74.36
82619;BME280;72286;12.108;-68.842;2023-08-17T04:31:08;101136.56;;;27.99;74.35
82619;BME280;72286;12.108;-68.842;2023-08-17T04:33:41;101136.26;;;27.94;74.78
82619;BME280;72286;12.108;-68.842;2023-08-17T04:36:15;101131.96;;;28.00;74.48
82619;BME280;72286;12.108;-68.842;2023-08-17T04:38:48;101130.54;;;28.04;74.33
82619;BME280;72286;12.108;-68.842;2023-08-17T04:41:22;101135.05;;;28.02;74.04
82619;BME280;72286;12.108;-68.842;2023-08-17T04:43:54;101135.00;;;28.02;73.92
82619;BME280;72286;12.108;-68.842;2023-08-17T04:46:29;101135.02;;;28.00;73.26
82619;BME280;72286;12.108;-68.842;2023-08-17T04:49:02;101139.09;;;28.03;72.61
82619;BME280;72286;12.108;-68.842;2023-08-17T04:51:36;101142.52;;;27.92;72.86
82619;BME280;72286;12.108;-68.842;2023-08-17T04:54:09;101138.73;;;27.89;72.85
82619;BME280;72286;12.108;-68.842;2023-08-17T04:56:41;101136.20;;;27.91;72.87
82619;BME280;72286;12.108;-68.842;2023-08-17T04:59:15;101137.33;;;27.90;73.00
82619;BME280;72286;12.108;-68.842;2023-08-17T05:01:51;101127.75;;;27.89;73.03
82619;BME280;72286;12.108;-68.842;2023-08-17T05:04:24;101129.15;;;27.89;73.06
82619;BME280;72286;12.108;-68.842;2023-08-17T05:07:00;101117.71;;;27.87;73.26
82619;BME280;72286;12.108;-68.842;2023-08-17T05:09:33;101119.84;;;27.85;73.21
82619;BME280;72286;12.108;-68.842;2023-08-17T05:12:05;101115.16;;;27.87;72.88
82619;BME280;72286;12.108;-68.842;2023-08-17T05:14:39;101116.09;;;27.97;72.39
82619;BME280;72286;12.108;-68.842;2023-08-17T05:17:11;101114.96;;;27.97;72.90
82619;BME280;72286;12.108;-68.842;2023-08-17T05:19:42;101119.25;;;28.00;73.10
82619;BME280;72286;12.108;-68.842;2023-08-17T05:22:15;101119.92;;;28.00;73.36
82619;BME280;72286;12.108;-68.842;2023-08-17T05:24:48;101116.90;;;28.00;73.60
82619;BME280;72286;12.108;-68.842;2023-08-17T05:27:21;101117.85;;;27.97;73.45
82619;BME280;72286;12.108;-68.842;2023-08-17T05:29:55;101116.91;;;27.96;73.57
82619;BME280;72286;12.108;-68.842;2023-08-17T05:32:28;101119.92;;;27.96;73.50
82619;BME280;72286;12.108;-68.842;2023-08-17T05:35:02;101114.56;;;27.98;73.17
82619;BME280;72286;12.108;-68.842;2023-08-17T05:37:34;101114.52;;;27.93;73.26
82619;BME280;72286;12.108;-68.842;2023-08-17T05:40:05;101109.69;;;27.88;73.41
82619;BME280;72286;12.108;-68.842;2023-08-17T05:42:39;101108.44;;;27.88;73.50
82619;BME280;72286;12.108;-68.842;2023-08-17T05:45:15;101098.00;;;27.89;73.63
82619;BME280;72286;12.108;-68.842;2023-08-17T05:47:46;101096.88;;;27.89;73.56
82619;BME280;72286;12.108;-68.842;2023-08-17T05:50:17;101093.73;;;27.96;73.35
82619;BME280;72286;12.108;-68.842;2023-08-17T05:52:48;101089.42;;;27.96;73.85
82619;BME280;72286;12.108;-68.842;2023-08-17T05:55:19;101084.71;;;27.97;73.91
82619;BME280;72286;12.108;-68.842;2023-08-17T05:57:51;101083.46;;;27.93;74.18
82619;BME280;72286;12.108;-68.842;2023-08-17T06:00:23;101082.63;;;27.94;73.75
82619;BME280;72286;12.108;-68.842;2023-08-17T06:02:55;101085.30;;;27.92;74.53
82619;BME280;72286;12.108;-68.842;2023-08-17T06:05:30;101084.19;;;27.90;74.43
82619;BME280;72286;12.108;-68.842;2023-08-17T06:08:01;101085.89;;;27.92;74.60
82619;BME280;72286;12.108;-68.842;2023-08-17T06:10:32;101085.66;;;27.86;75.03
82619;BME280;72286;12.108;-68.842;2023-08-17T06:13:03;101085.04;;;27.77;75.69
82619;BME280;72286;12.108;-68.842;2023-08-17T06:15:35;101080.33;;;27.84;75.19
82619;BME280;72286;12.108;-68.842;2023-08-17T06:18:08;101082.10;;;27.82;75.70
82619;BME280;72286;12.108;-68.842;2023-08-17T06:20:40;101079.58;;;27.80;75.94
82619;BME280;72286;12.108;-68.842;2023-08-17T06:23:15;101081.16;;;27.77;76.56
82619;BME280;72286;12.108;-68.842;2023-08-17T06:25:46;101084.33;;;27.74;76.84
82619;BME280;72286;12.108;-68.842;2023-08-17T06:28:17;101085.53;;;27.78;76.58
82619;BME280;72286;12.108;-68.842;2023-08-17T06:30:51;101084.14;;;27.83;76.76
82619;BME280;72286;12.108;-68.842;2023-08-17T06:33:27;101085.32;;;27.90;76.10
82619;BME280;72286;12.108;-68.842;2023-08-17T06:35:58;101083.68;;;27.94;76.59
82619;BME280;72286;12.108;-68.842;2023-08-17T06:38:31;101086.86;;;28.02;75.67
82619;BME280;72286;12.108;-68.842;2023-08-17T06:41:04;101090.96;;;28.09;75.64
82619;BME280;72286;12.108;-68.842;2023-08-17T06:47:33;101091.30;;;28.15;75.58
82619;BME280;72286;12.108;-68.842;2023-08-17T06:50:05;101086.44;;;28.07;75.51
82619;BME280;72286;12.108;-68.842;2023-08-17T06:52:35;101078.48;;;28.12;74.91
82619;BME280;72286;12.108;-68.842;2023-08-17T06:55:07;101077.50;;;28.11;75.14
82619;BME280;72286;12.108;-68.842;2023-08-17T06:57:43;101082.80;;;28.10;75.39
82619;BME280;72286;12.108;-68.842;2023-08-17T07:00:16;101084.64;;;28.05;75.61
82619;BME280;72286;12.108;-68.842;2023-08-17T07:02:50;101091.83;;;28.03;75.56
82619;BME280;72286;12.108;-68.842;2023-08-17T07:05:22;101089.16;;;27.95;75.80
82619;BME280;72286;12.108;-68.842;2023-08-17T07:07:56;101093.04;;;27.96;75.67
82619;BME280;72286;12.108;-68.842;2023-08-17T07:10:29;101087.73;;;27.93;75.75
82619;BME280;72286;12.108;-68.842;2023-08-17T07:13:01;101087.82;;;27.94;75.22
82619;BME280;72286;12.108;-68.842;2023-08-17T07:15:34;101093.14;;;27.87;75.29
82619;BME280;72286;12.108;-68.842;2023-08-17T07:18:07;101094.90;;;27.82;75.46
82619;BME280;72286;12.108;-68.842;2023-08-17T07:20:38;101091.40;;;27.82;75.17
82619;BME280;72286;12.108;-68.842;2023-08-17T07:23:11;101089.37;;;27.77;75.36
82619;BME280;72286;12.108;-68.842;2023-08-17T07:25:43;101088.61;;;27.66;75.60
82619;BME280;72286;12.108;-68.842;2023-08-17T07:28:16;101081.92;;;27.66;75.37
82619;BME280;72286;12.108;-68.842;2023-08-17T07:30:49;101077.63;;;27.68;75.38
82619;BME280;72286;12.108;-68.842;2023-08-17T07:33:20;101072.46;;;27.66;75.31
82619;BME280;72286;12.108;-68.842;2023-08-17T07:35:54;101073.29;;;27.65;75.11
82619;BME280;72286;12.108;-68.842;2023-08-17T07:38:30;101072.13;;;27.68;74.99
82619;BME280;72286;12.108;-68.842;2023-08-17T07:41:02;101072.29;;;27.66;75.19
82619;BME280;72286;12.108;-68.842;2023-08-17T07:43:33;101075.27;;;27.67;75.08
82619;BME280;72286;12.108;-68.842;2023-08-17T07:46:04;101074.16;;;27.65;75.24
82619;BME280;72286;12.108;-68.842;2023-08-17T07:48:35;101076.23;;;27.66;75.25
82619;BME280;72286;12.108;-68.842;2023-08-17T07:51:06;101072.64;;;27.66;75.27
82619;BME280;72286;12.108;-68.842;2023-08-17T07:53:39;101066.97;;;27.65;75.31
82619;BME280;72286;12.108;-68.842;2023-08-17T07:56:11;101070.60;;;27.65;75.52
82619;BME280;72286;12.108;-68.842;2023-08-17T07:58:53;101068.64;;;27.61;75.68
82619;BME280;72286;12.108;-68.842;2023-08-17T08:01:24;101064.27;;;27.67;75.02
82619;BME280;72286;12.108;-68.842;2023-08-17T08:03:57;101066.16;;;27.72;74.50
82619;BME280;72286;12.108;-68.842;2023-08-17T08:06:31;101071.11;;;27.67;75.05
82619;BME280;72286;12.108;-68.842;2023-08-17T08:09:05;101067.14;;;27.61;75.10
82619;BME280;72286;12.108;-68.842;2023-08-17T08:11:39;101071.89;;;27.64;74.81
82619;BME280;72286;12.108;-68.842;2023-08-17T08:14:12;101073.65;;;27.61;75.04
82619;BME280;72286;12.108;-68.842;2023-08-17T08:16:46;101067.88;;;27.59;75.29
82619;BME280;72286;12.108;-68.842;2023-08-17T08:19:18;101067.77;;;27.58;75.24
82619;BME280;72286;12.108;-68.842;2023-08-17T08:21:53;101071.60;;;27.56;75.64
82619;BME280;72286;12.108;-68.842;2023-08-17T08:24:24;101076.63;;;27.58;75.63
82619;BME280;72286;12.108;-68.842;2023-08-17T08:27:00;101080.24;;;27.63;75.20
82619;BME280;72286;12.108;-68.842;2023-08-17T08:29:33;101090.35;;;27.63;75.50
82619;BME280;72286;12.108;-68.842;2023-08-17T08:32:07;101097.04;;;27.62;75.86
82619;BME280;72286;12.108;-68.842;2023-08-17T08:34:43;101097.27;;;27.58;76.11
82619;BME280;72286;12.108;-68.842;2023-08-17T08:37:14;101098.14;;;27.52;76.22
82619;BME280;72286;12.108;-68.842;2023-08-17T08:39:56;101099.54;;;27.44;76.43
82619;BME280;72286;12.108;-68.842;2023-08-17T08:42:33;101098.98;;;27.52;75.88
82619;BME280;72286;12.108;-68.842;2023-08-17T08:45:08;101100.91;;;27.49;76.14
82619;BME280;72286;12.108;-68.842;2023-08-17T08:47:41;101102.21;;;27.42;76.50
82619;BME280;72286;12.108;-68.842;2023-08-17T08:50:18;101096.71;;;27.50;76.02
82619;BME280;72286;12.108;-68.842;2023-08-17T08:53:11;101098.31;;;27.44;76.47
82619;BME280;72286;12.108;-68.842;2023-08-17T08:55:57;101103.57;;;27.47;76.44
82619;BME280;72286;12.108;-68.842;2023-08-17T08:58:31;101110.16;;;27.44;77.15
82619;BME280;72286;12.108;-68.842;2023-08-17T09:01:02;101111.02;;;27.44;77.18
82619;BME280;72286;12.108;-68.842;2023-08-17T09:03:35;101114.64;;;27.42;77.41
82619;BME280;72286;12.108;-68.842;2023-08-17T09:06:07;101117.56;;;27.39;77.68
82619;BME280;72286;12.108;-68.842;2023-08-17T09:08:46;101124.89;;;27.35;77.90
82619;BME280;72286;12.108;-68.842;2023-08-17T09:11:25;101127.80;;;27.39;77.74
82619;BME280;72286;12.108;-68.842;2023-08-17T09:14:00;101130.24;;;27.36;77.97
82619;BME280;72286;12.108;-68.842;2023-08-17T09:16:33;101129.30;;;27.40;77.46
82619;BME280;72286;12.108;-68.842;2023-08-17T09:19:05;101127.70;;;27.42;77.77
82619;BME280;72286;12.108;-68.842;2023-08-17T09:21:36;101127.28;;;27.45;77.28
82619;BME280;72286;12.108;-68.842;2023-08-17T09:24:08;101122.98;;;27.41;77.75
82619;BME280;72286;12.108;-68.842;2023-08-17T09:26:39;101123.59;;;27.38;77.88
82619;BME280;72286;12.108;-68.842;2023-08-17T09:29:20;101122.27;;;27.39;77.81
82619;BME280;72286;12.108;-68.842;2023-08-17T09:31:53;101125.70;;;27.40;77.84
82619;BME280;72286;12.108;-68.842;2023-08-17T09:37:14;101132.14;;;27.41;77.79
82619;BME280;72286;12.108;-68.842;2023-08-17T09:39:44;101136.56;;;27.39;78.00
82619;BME280;72286;12.108;-68.842;2023-08-17T09:42:30;101130.43;;;27.40;77.98
82619;BME280;72286;12.108;-68.842;2023-08-17T09:45:37;101139.38;;;27.40;77.94
82619;BME280;72286;12.108;-68.842;2023-08-17T09:48:09;101137.23;;;27.40;78.07
82619;BME280;72286;12.108;-68.842;2023-08-17T09:50:39;101138.30;;;27.36;78.02
82619;BME280;72286;12.108;-68.842;2023-08-17T09:53:16;101134.54;;;27.38;77.64
82619;BME280;72286;12.108;-68.842;2023-08-17T09:55:47;101139.30;;;27.35;77.58
82619;BME280;72286;12.108;-68.842;2023-08-17T09:58:18;101142.55;;;27.38;77.28
82619;BME280;72286;12.108;-68.842;2023-08-17T10:00:51;101151.71;;;27.38;77.27
82619;BME280;72286;12.108;-68.842;2023-08-17T10:03:22;101154.50;;;27.39;77.18
82619;BME280;72286;12.108;-68.842;2023-08-17T10:06:15;101160.67;;;27.40;77.28
82619;BME280;72286;12.108;-68.842;2023-08-17T10:08:48;101168.09;;;27.40;77.52
82619;BME280;72286;12.108;-68.842;2023-08-17T10:11:21;101172.21;;;27.36;77.77
82619;BME280;72286;12.108;-68.842;2023-08-17T10:14:02;101175.58;;;27.38;77.89
82619;BME280;72286;12.108;-68.842;2023-08-17T10:17:06;101182.96;;;27.40;77.81
82619;BME280;72286;12.108;-68.842;2023-08-17T10:19:54;101183.02;;;27.37;77.89
82619;BME280;72286;12.108;-68.842;2023-08-17T10:25:25;101189.41;;;27.36;78.07
82619;BME280;72286;12.108;-68.842;2023-08-17T10:27:56;101189.05;;;27.32;78.37
82619;BME280;72286;12.108;-68.842;2023-08-17T10:30:28;101188.17;;;27.29;78.36
82619;BME280;72286;12.108;-68.842;2023-08-17T10:32:59;101192.35;;;27.35;78.01
82619;BME280;72286;12.108;-68.842;2023-08-17T10:35:33;101194.33;;;27.37;77.93
82619;BME280;72286;12.108;-68.842;2023-08-17T10:38:06;101196.63;;;27.39;78.13
82619;BME280;72286;12.108;-68.842;2023-08-17T10:40:41;101193.14;;;27.42;78.03
82619;BME280;72286;12.108;-68.842;2023-08-17T10:43:12;101195.64;;;27.40;78.03
82619;BME280;72286;12.108;-68.842;2023-08-17T10:45:43;101194.48;;;27.48;77.84
82619;BME280;72286;12.108;-68.842;2023-08-17T10:51:03;101204.58;;;27.51;77.46
82619;BME280;72286;12.108;-68.842;2023-08-17T10:53:39;101205.27;;;27.65;76.62
82619;BME280;72286;12.108;-68.842;2023-08-17T10:56:16;101205.79;;;27.88;75.71
82619;BME280;72286;12.108;-68.842;2023-08-17T10:58:53;101215.59;;;28.10;74.86
82619;BME280;72286;12.108;-68.842;2023-08-17T11:01:52;101214.56;;;28.32;73.73
82619;BME280;72286;12.108;-68.842;2023-08-17T11:04:23;101206.38;;;28.62;72.54
82619;BME280;72286;12.108;-68.842;2023-08-17T11:07:04;101209.61;;;28.99;70.60
82619;BME280;72286;12.108;-68.842;2023-08-17T11:09:45;101210.24;;;29.20;69.39
82619;BME280;72286;12.108;-68.842;2023-08-17T11:12:28;101212.89;;;29.66;67.82
82619;BME280;72286;12.108;-68.842;2023-08-17T11:14:59;101215.42;;;30.22;66.02
82619;BME280;72286;12.108;-68.842;2023-08-17T11:17:35;101213.89;;;30.64;64.47
82619;BME280;72286;12.108;-68.842;2023-08-17T11:20:09;101222.13;;;30.92;63.16
82619;BME280;72286;12.108;-68.842;2023-08-17T11:22:41;101227.95;;;31.28;62.35
82619;BME280;72286;12.108;-68.842;2023-08-17T11:25:11;101230.97;;;31.60;61.25
82619;BME280;72286;12.108;-68.842;2023-08-17T13:22:50;101280.20;;;31.67;57.45
82619;BME280;72286;12.108;-68.842;2023-08-17T13:25:21;101278.98;;;31.56;57.40
82619;BME280;72286;12.108;-68.842;2023-08-17T13:27:52;101286.58;;;31.48;58.17
82619;BME280;72286;12.108;-68.842;2023-08-17T13:30:23;101284.10;;;31.52;58.54
82619;BME280;72286;12.108;-68.842;2023-08-17T13:32:55;101281.05;;;31.64;58.40
82619;BME280;72286;12.108;-68.842;2023-08-17T13:35:25;101279.20;;;31.76;57.59
82619;BME280;72286;12.108;-68.842;2023-08-17T13:37:58;101280.45;;;31.80;57.56
82619;BME280;72286;12.108;-68.842;2023-08-17T13:40:36;101280.61;;;31.71;57.96
82619;BME280;72286;12.108;-68.842;2023-08-17T13:46:30;101272.42;;;31.64;58.59
82619;BME280;72286;12.108;-68.842;2023-08-17T13:49:01;101273.77;;;31.63;58.92
82619;BME280;72286;12.108;-68.842;2023-08-17T13:51:33;101277.16;;;31.70;58.67
82619;BME280;72286;12.108;-68.842;2023-08-17T13:54:09;101274.48;;;31.61;59.21
82619;BME280;72286;12.108;-68.842;2023-08-17T13:56:39;101279.82;;;31.65;58.77
82619;BME280;72286;12.108;-68.842;2023-08-17T13:59:10;101275.80;;;31.66;58.77
82619;BME280;72286;12.108;-68.842;2023-08-17T14:01:39;101269.20;;;31.73;58.51
82619;BME280;72286;12.108;-68.842;2023-08-17T14:04:11;101270.39;;;31.81;58.10
82619;BME280;72286;12.108;-68.842;2023-08-17T14:06:43;101272.91;;;31.73;57.76
82619;BME280;72286;12.108;-68.842;2023-08-17T14:09:14;101276.43;;;31.68;58.35
82619;BME280;72286;12.108;-68.842;2023-08-17T14:11:44;101275.07;;;31.64;58.71
82619;BME280;72286;12.108;-68.842;2023-08-17T14:14:15;101276.13;;;31.86;57.64
82619;BME280;72286;12.108;-68.842;2023-08-17T14:16:46;101279.73;;;32.03;57.04
82619;BME280;72286;12.108;-68.842;2023-08-17T14:19:16;101277.35;;;31.93;56.01
82619;BME280;72286;12.108;-68.842;2023-08-17T14:21:47;101279.48;;;31.94;55.90
82619;BME280;72286;12.108;-68.842;2023-08-17T14:24:21;101281.02;;;31.93;55.42
82619;BME280;72286;12.108;-68.842;2023-08-17T14:26:52;101274.09;;;31.70;55.58
82619;BME280;72286;12.108;-68.842;2023-08-17T14:29:26;101275.89;;;31.65;56.03
82619;BME280;72286;12.108;-68.842;2023-08-17T14:31:58;101281.59;;;31.83;55.08
82619;BME280;72286;12.108;-68.842;2023-08-17T14:34:29;101284.67;;;31.72;55.77
82619;BME280;72286;12.108;-68.842;2023-08-17T14:37:00;101281.16;;;31.68;55.62
82619;BME280;72286;12.108;-68.842;2023-08-17T14:39:31;101286.65;;;31.69;55.84
82619;BME280;72286;12.108;-68.842;2023-08-17T14:42:01;101287.27;;;31.72;55.71
82619;BME280;72286;12.108;-68.842;2023-08-17T14:44:32;101290.06;;;31.84;55.36
82619;BME280;72286;12.108;-68.842;2023-08-17T14:47:02;101290.57;;;31.83;54.25
82619;BME280;72286;12.108;-68.842;2023-08-17T14:49:33;101295.15;;;31.96;53.98
82619;BME280;72286;12.108;-68.842;2023-08-17T14:52:05;101289.82;;;32.02;53.08
82619;BME280;72286;12.108;-68.842;2023-08-17T14:54:37;101282.25;;;32.00;53.36
82619;BME280;72286;12.108;-68.842;2023-08-17T14:57:09;101280.16;;;31.89;54.34
82619;BME280;72286;12.108;-68.842;2023-08-17T14:59:41;101285.73;;;31.89;53.71
82619;BME280;72286;12.108;-68.842;2023-08-17T15:02:13;101281.94;;;31.93;52.47
82619;BME280;72286;12.108;-68.842;2023-08-17T15:04:45;101280.49;;;32.07;53.38
82619;BME280;72286;12.108;-68.842;2023-08-17T15:07:15;101279.90;;;32.21;53.18
82619;BME280;72286;12.108;-68.842;2023-08-17T15:09:46;101281.82;;;32.15;52.64
82619;BME280;72286;12.108;-68.842;2023-08-17T15:12:17;101282.69;;;32.12;53.34
82619;BME280;72286;12.108;-68.842;2023-08-17T15:14:52;101285.02;;;32.19;53.76
82619;BME280;72286;12.108;-68.842;2023-08-17T15:17:25;101280.30;;;32.34;52.91
82619;BME280;72286;12.108;-68.842;2023-08-17T15:19:57;101279.91;;;32.48;51.84
82619;BME280;72286;12.108;-68.842;2023-08-17T15:22:29;101281.20;;;32.41;52.41
82619;BME280;72286;12.108;-68.842;2023-08-17T15:25:02;101280.57;;;32.18;52.89
82619;BME280;72286;12.108;-68.842;2023-08-17T15:27:42;101272.38;;;32.17;53.96
82619;BME280;72286;12.108;-68.842;2023-08-17T15:30:16;101272.69;;;32.14;53.59
82619;BME280;72286;12.108;-68.842;2023-08-17T15:32:47;101269.64;;;32.22;53.12
82619;BME280;72286;12.108;-68.842;2023-08-17T15:35:18;101273.17;;;32.23;51.77
82619;BME280;72286;12.108;-68.842;2023-08-17T15:37:48;101279.27;;;32.24;51.55
82619;BME280;72286;12.108;-68.842;2023-08-17T15:40:19;101279.38;;;32.11;52.47
82619;BME280;72286;12.108;-68.842;2023-08-17T15:42:50;101272.48;;;32.16;51.52
82619;BME280;72286;12.108;-68.842;2023-08-17T15:45:20;101267.11;;;32.24;52.14
82619;BME280;72286;12.108;-68.842;2023-08-17T15:47:51;101266.11;;;32.28;51.70
82619;BME280;72286;12.108;-68.842;2023-08-17T15:50:20;101267.50;;;32.17;51.93
82619;BME280;72286;12.108;-68.842;2023-08-17T15:52:52;101262.18;;;32.20;51.44
82619;BME280;72286;12.108;-68.842;2023-08-17T15:59:05;101255.88;;;32.41;50.74
82619;BME280;72286;12.108;-68.842;2023-08-17T16:01:36;101245.42;;;32.34;50.26
82619;BME280;72286;12.108;-68.842;2023-08-17T16:04:06;101246.50;;;32.42;51.03
82619;BME280;72286;12.108;-68.842;2023-08-17T16:06:41;101247.16;;;32.16;50.08
82619;BME280;72286;12.108;-68.842;2023-08-17T16:09:27;101236.80;;;31.96;50.10
82619;BME280;72286;12.108;-68.842;2023-08-17T16:11:59;101232.79;;;31.90;50.55
82619;BME280;72286;12.108;-68.842;2023-08-17T16:14:37;101232.34;;;31.87;50.54
82619;BME280;72286;12.108;-68.842;2023-08-17T16:17:09;101226.89;;;31.89;50.67
82619;BME280;72286;12.108;-68.842;2023-08-17T16:19:40;101227.73;;;32.10;51.08
82619;BME280;72286;12.108;-68.842;2023-08-17T16:22:14;101224.30;;;32.19;50.14
82619;BME280;72286;12.108;-68.842;2023-08-17T16:24:48;101220.05;;;32.30;49.58
82619;BME280;72286;12.108;-68.842;2023-08-17T16:31:08;101208.45;;;32.23;50.99
82619;BME280;72286;12.108;-68.842;2023-08-17T16:33:38;101206.69;;;32.41;50.21
82619;BME280;72286;12.108;-68.842;2023-08-17T16:36:09;101198.84;;;32.35;49.95
82619;BME280;72286;12.108;-68.842;2023-08-17T16:38:40;101191.94;;;32.44;50.39
82619;BME280;72286;12.108;-68.842;2023-08-17T16:41:13;101188.95;;;32.27;51.40
82619;BME280;72286;12.108;-68.842;2023-08-17T16:43:46;101191.10;;;32.17;51.12
82619;BME280;72286;12.108;-68.842;2023-08-17T16:46:18;101189.63;;;32.33;50.66
82619;BME280;72286;12.108;-68.842;2023-08-17T16:48:55;101180.98;;;32.15;50.77
82619;BME280;72286;12.108;-68.842;2023-08-17T16:51:26;101186.73;;;31.98;50.74
82619;BME280;72286;12.108;-68.842;2023-08-17T16:53:57;101187.86;;;32.01;51.28
82619;BME280;72286;12.108;-68.842;2023-08-17T16:56:28;101189.30;;;32.08;51.24
82619;BME280;72286;12.108;-68.842;2023-08-17T16:58:59;101188.10;;;32.14;49.87
82619;BME280;72286;12.108;-68.842;2023-08-17T17:01:33;101181.44;;;31.95;51.04
82619;BME280;72286;12.108;-68.842;2023-08-17T17:04:04;101173.85;;;32.19;51.40
82619;BME280;72286;12.108;-68.842;2023-08-17T17:06:36;101180.90;;;32.24;51.28
82619;BME280;72286;12.108;-68.842;2023-08-17T17:09:09;101172.40;;;32.09;51.72
82619;BME280;72286;12.108;-68.842;2023-08-17T17:11:58;101169.02;;;32.12;51.94
82619;BME280;72286;12.108;-68.842;2023-08-17T17:14:29;101162.69;;;32.08;52.06
82619;BME280;72286;12.108;-68.842;2023-08-17T17:17:00;101157.80;;;32.21;50.59
82619;BME280;72286;12.108;-68.842;2023-08-17T17:19:31;101152.52;;;32.04;52.11
82619;BME280;72286;12.108;-68.842;2023-08-17T17:22:20;101150.48;;;31.86;52.62
82619;BME280;72286;12.108;-68.842;2023-08-17T17:24:52;101144.71;;;31.89;51.57
82619;BME280;72286;12.108;-68.842;2023-08-17T17:28:18;101139.16;;;31.90;52.00
82619;BME280;72286;12.108;-68.842;2023-08-17T17:31:25;101131.91;;;32.04;51.70
82619;BME280;72286;12.108;-68.842;2023-08-17T17:33:56;101131.52;;;31.91;51.64
82619;BME280;72286;12.108;-68.842;2023-08-17T17:36:40;101120.07;;;32.00;51.44
82619;BME280;72286;12.108;-68.842;2023-08-17T17:39:10;101120.73;;;32.05;51.03
82619;BME280;72286;12.108;-68.842;2023-08-17T17:41:41;101120.09;;;32.01;51.51
82619;BME280;72286;12.108;-68.842;2023-08-17T17:44:30;101118.21;;;32.10;51.03
82619;BME280;72286;12.108;-68.842;2023-08-17T17:47:02;101115.46;;;32.11;49.83
82619;BME280;72286;12.108;-68.842;2023-08-17T17:49:33;101106.32;;;31.83;49.83
82619;BME280;72286;12.108;-68.842;2023-08-17T17:52:07;101102.66;;;31.79;50.35